Time;durP1;ratioP1;P1;durP2;ratioP2;P2;SDS_P1;SDS_P2;PMS_P1;PMS_P2;Temp;Humidity;BMP_temperature;BMP_pressure;BME280_temperature;BME280_humidity;BME280_pressure;Samples;Min_cycle;Max_cycle;Signal;HPM_P1;HPM_P2
2021/10/11 00:01:59;;;;;;;0.22;0.22;;;;;;;6.08;100.00;101681.00;5012490;28;20055;-83
2021/10/11 00:04:32;;;;;;;0.20;0.20;;;;;;;6.19;100.00;101682.97;5012624;28;20365;-82
2021/10/11 00:07:08;;;;;;;0.20;0.20;;;;;;;6.28;100.00;101657.28;5010136;28;20814;-83
2021/10/11 00:09:42;;;;;;;0.30;0.30;;;;;;;6.37;100.00;101668.59;5028265;28;20046;-82
2021/10/11 00:12:19;;;;;;;0.20;0.20;;;;;;;6.38;100.00;101664.84;5011531;28;20053;-83
2021/10/11 00:14:47;;;;;;;0.20;0.20;;;;;;;6.28;100.00;101646.47;5012686;28;20045;-82
2021/10/11 00:17:15;;;;;;;0.20;0.20;;;;;;;6.42;100.00;101662.50;5030570;28;20048;-83
2021/10/11 00:19:43;;;;;;;0.20;0.20;;;;;;;6.42;100.00;101670.63;5012774;28;20053;-82
2021/10/11 00:22:11;;;;;;;0.20;0.20;;;;;;;6.36;100.00;101668.84;5011717;28;20050;-83
2021/10/11 00:24:39;;;;;;;0.20;0.20;;;;;;;6.49;100.00;101670.53;5011239;28;20057;-82
2021/10/11 00:27:09;;;;;;;0.20;0.20;;;;;;;6.54;100.00;101676.09;5012331;28;20049;-82
2021/10/11 00:29:42;;;;;;;0.20;0.20;;;;;;;6.58;100.00;101663.75;5013268;28;20509;-83
2021/10/11 00:32:15;;;;;;;0.20;0.20;;;;;;;6.66;100.00;101668.84;5027674;28;20045;-82
2021/10/11 00:34:44;;;;;;;0.17;0.17;;;;;;;6.73;100.00;101663.34;5011970;28;20050;-83
2021/10/11 00:37:17;;;;;;;0.20;0.20;;;;;;;6.77;100.00;101670.78;5029831;28;20413;-83
2021/10/11 00:39:50;;;;;;;0.20;0.20;;;;;;;6.89;100.00;101681.66;5012609;28;20057;-82
2021/10/11 00:42:25;;;;;;;0.25;0.25;;;;;;;6.86;100.00;101676.69;5025546;28;20065;-82
2021/10/11 00:45:00;;;;;;;0.20;0.20;;;;;;;6.86;100.00;101665.03;5011003;28;20053;-82
2021/10/11 00:47:34;;;;;;;0.10;0.10;;;;;;;6.96;100.00;101668.84;5010701;28;20049;-82
2021/10/11 00:50:02;;;;;;;0.20;0.20;;;;;;;6.77;100.00;101657.25;5008889;28;20057;-83
2021/10/11 00:52:35;;;;;;;0.20;0.20;;;;;;;6.88;100.00;101673.78;5010402;28;20053;-82
2021/10/11 00:55:09;;;;;;;0.20;0.20;;;;;;;6.98;100.00;101665.91;5029180;28;20409;-82
2021/10/11 00:57:44;;;;;;;0.20;0.20;;;;;;;6.95;100.00;101658.25;5030249;28;20049;-81
2021/10/11 01:00:17;;;;;;;0.20;0.20;;;;;;;6.80;100.00;101645.97;5010588;28;20053;-82
2021/10/11 01:02:51;;;;;;;0.20;0.20;;;;;;;6.92;100.00;101659.53;5010890;28;20041;-82
2021/10/11 01:05:24;;;;;;;0.20;0.20;;;;;;;6.94;100.00;101651.19;5025038;28;20056;-82
2021/10/11 01:07:53;;;;;;;0.20;0.20;;;;;;;6.92;100.00;101650.59;5011903;28;20056;-82
2021/10/11 01:10:26;;;;;;;0.20;0.20;;;;;;;6.91;100.00;101644.34;5028242;28;21126;-83
2021/10/11 01:12:55;;;;;;;0.10;0.10;;;;;;;6.91;100.00;101655.16;5011203;28;20061;-82
2021/10/11 01:15:28;;;;;;;0.20;0.20;;;;;;;7.10;100.00;101641.59;5029144;28;20050;-83
2021/10/11 01:18:02;;;;;;;0.28;0.28;;;;;;;7.08;100.00;101641.78;5011938;28;20066;-82
2021/10/11 01:20:36;;;;;;;0.20;0.20;;;;;;;7.04;100.00;101639.78;5023767;28;20057;-83
2021/10/11 01:23:10;;;;;;;0.20;0.20;;;;;;;6.93;100.00;101638.69;5029159;28;20060;-82
2021/10/11 01:25:44;;;;;;;0.13;0.13;;;;;;;6.92;100.00;101632.47;5028979;28;20050;-82
2021/10/11 01:28:17;;;;;;;0.20;0.20;;;;;;;6.98;100.00;101636.13;5010912;28;20405;-83
2021/10/11 01:30:51;;;;;;;0.20;0.20;;;;;;;6.99;100.00;101635.09;5028904;28;20037;-82
2021/10/11 01:33:24;;;;;;;0.20;0.20;;;;;;;6.96;100.00;101639.06;5009978;28;20398;-83
2021/10/11 01:35:59;;;;;;;0.30;0.30;;;;;;;7.06;100.00;101643.09;5027694;28;20049;-82
2021/10/11 01:38:32;;;;;;;0.20;0.20;;;;;;;7.03;100.00;101632.72;5027139;28;20050;-82
2021/10/11 01:41:08;;;;;;;0.20;0.20;;;;;;;7.16;100.00;101627.09;5010781;28;20050;-82
2021/10/11 01:43:41;;;;;;;0.20;0.20;;;;;;;7.04;100.00;101635.19;5029266;28;20045;-82
2021/10/11 01:46:10;;;;;;;0.20;0.20;;;;;;;6.88;100.00;101620.47;5011296;28;20057;-82
2021/10/11 01:48:43;;;;;;;0.20;0.20;;;;;;;6.93;100.00;101636.84;5029433;28;20053;-83
2021/10/11 01:51:13;;;;;;;0.20;0.20;;;;;;;6.89;100.00;101632.09;5029751;28;20056;-82
2021/10/11 01:53:47;;;;;;;0.20;0.20;;;;;;;6.91;100.00;101635.41;5029062;28;20049;-82
2021/10/11 01:56:15;;;;;;;0.20;0.20;;;;;;;6.86;100.00;101632.56;5005888;28;20052;-82
2021/10/11 01:58:48;;;;;;;0.20;0.20;;;;;;;6.86;100.00;101627.16;5008994;28;20049;-82
2021/10/11 02:01:21;;;;;;;0.30;0.30;;;;;;;6.77;100.00;101608.56;5008676;28;20057;-82
2021/10/11 02:03:54;;;;;;;0.20;0.20;;;;;;;6.85;100.00;101625.50;5008195;28;20057;-82
2021/10/11 02:06:24;;;;;;;0.22;0.22;;;;;;;6.80;100.00;101618.91;5031437;28;20049;-82
2021/10/11 02:08:57;;;;;;;0.10;0.10;;;;;;;6.84;100.00;101621.16;5014950;28;20049;-82
2021/10/11 02:11:31;;;;;;;0.20;0.20;;;;;;;6.91;100.00;101628.13;5030755;28;20409;-82
2021/10/11 02:14:04;;;;;;;0.20;0.20;;;;;;;6.85;100.00;101628.22;5032338;28;20057;-83
2021/10/11 02:16:32;;;;;;;0.30;0.30;;;;;;;6.89;100.00;101634.81;5015235;28;20050;-82
2021/10/11 02:19:05;;;;;;;0.30;0.30;;;;;;;6.85;100.00;101629.06;5030723;28;20053;-81
2021/10/11 02:21:35;;;;;;;0.25;0.25;;;;;;;6.85;100.00;101629.06;5031692;28;20056;-82
2021/10/11 02:24:09;;;;;;;0.30;0.30;;;;;;;6.89;100.00;101616.72;5014219;28;20387;-82
2021/10/11 02:26:37;;;;;;;0.22;0.22;;;;;;;6.84;100.00;101621.97;5013543;28;20057;-82
2021/10/11 02:29:07;;;;;;;0.20;0.20;;;;;;;6.91;100.00;101620.00;5032362;28;20048;-82
2021/10/11 02:31:36;;;;;;;0.20;0.20;;;;;;;6.86;100.00;101614.44;5032451;28;20053;-82
2021/10/11 02:34:04;;;;;;;0.30;0.30;;;;;;;6.86;100.00;101616.34;5013675;28;20057;-84
2021/10/11 02:36:38;;;;;;;0.20;0.20;;;;;;;6.84;100.00;101615.75;5013407;28;20052;-83
2021/10/11 02:39:06;;;;;;;0.20;0.20;;;;;;;6.80;100.00;101602.66;5013658;28;20474;-83
2021/10/11 02:41:40;;;;;;;0.30;0.30;;;;;;;6.84;100.00;101619.28;5031227;28;20050;-84
2021/10/11 02:44:08;;;;;;;0.20;0.20;;;;;;;6.90;100.00;101612.09;5014518;28;20050;-84
2021/10/11 02:46:41;;;;;;;0.30;0.30;;;;;;;6.93;100.00;101607.06;5027889;28;20060;-83
2021/10/11 02:49:14;;;;;;;0.20;0.20;;;;;;;6.90;100.00;101604.81;5032376;28;20042;-83
2021/10/11 02:51:49;;;;;;;0.20;0.20;;;;;;;6.89;100.00;101603.19;5030223;28;20064;-83
2021/10/11 02:54:22;;;;;;;0.20;0.20;;;;;;;6.94;100.00;101616.00;5013887;28;20046;-83
2021/10/11 02:56:55;;;;;;;0.30;0.30;;;;;;;6.90;100.00;101588.56;5014391;28;20064;-83
2021/10/11 02:59:28;;;;;;;0.20;0.20;;;;;;;7.00;100.00;101598.00;5014090;28;20041;-83
2021/10/11 03:02:02;;;;;;;0.28;0.28;;;;;;;6.93;100.00;101590.84;5012846;28;20084;-83
2021/10/11 03:04:35;;;;;;;0.20;0.20;;;;;;;6.91;100.00;101582.09;5013765;28;20048;-83
2021/10/11 03:07:10;;;;;;;0.28;0.28;;;;;;;6.97;100.00;101591.19;5013912;28;20417;-83
2021/10/11 03:09:43;;;;;;;0.20;0.20;;;;;;;6.99;100.00;101580.94;5013721;28;20478;-83
2021/10/11 03:12:17;;;;;;;0.22;0.22;;;;;;;7.04;100.00;101586.47;5021794;28;20050;-83
2021/10/11 03:14:51;;;;;;;0.22;0.22;;;;;;;6.97;100.00;101594.72;5008925;28;20053;-83
2021/10/11 03:17:24;;;;;;;0.20;0.20;;;;;;;7.01;100.00;101589.66;5009086;28;20041;-83
2021/10/11 03:19:52;;;;;;;0.20;0.20;;;;;;;7.01;100.00;101588.84;5014362;28;20064;-83
2021/10/11 03:22:27;;;;;;;0.25;0.25;;;;;;;7.01;100.00;101589.66;5013453;28;20067;-83
2021/10/11 03:24:56;;;;;;;0.20;0.20;;;;;;;7.04;100.00;101588.34;5013466;28;20061;-82
2021/10/11 03:27:24;;;;;;;0.28;0.28;;;;;;;7.01;100.00;101596.97;5013278;28;20054;-82
2021/10/11 03:29:57;;;;;;;0.22;0.22;;;;;;;6.93;100.00;101584.56;5013314;28;20041;-83
2021/10/11 03:32:30;;;;;;;0.20;0.20;;;;;;;7.06;100.00;101588.97;5012154;28;20049;-83
2021/10/11 03:35:04;;;;;;;0.30;0.30;;;;;;;6.96;100.00;101590.34;5012994;28;20068;-82
2021/10/11 03:37:38;;;;;;;0.30;0.30;;;;;;;6.99;100.00;101599.91;5012596;28;20080;-82
2021/10/11 03:40:08;;;;;;;0.30;0.30;;;;;;;6.92;100.00;101583.75;5013560;28;20116;-82
2021/10/11 03:42:41;;;;;;;0.20;0.20;;;;;;;7.03;100.00;101595.66;5027193;28;20049;-82
2021/10/11 03:45:14;;;;;;;0.30;0.30;;;;;;;7.04;100.00;101599.19;5028676;28;20076;-82
2021/10/11 03:47:47;;;;;;;0.28;0.28;;;;;;;7.05;100.00;101596.25;5030880;28;20068;-83
2021/10/11 03:50:16;;;;;;;0.20;0.20;;;;;;;6.98;100.00;101585.53;5013024;28;20046;-82
2021/10/11 03:52:50;;;;;;;0.30;0.30;;;;;;;7.12;100.00;101606.97;5012348;28;20050;-82
2021/10/11 03:55:23;;;;;;;0.20;0.20;;;;;;;7.07;100.00;101598.72;5028313;28;20064;-81
2021/10/11 03:57:57;;;;;;;0.30;0.30;;;;;;;7.21;100.00;101599.31;5029550;28;20371;-82
2021/10/11 04:00:25;;;;;;;0.30;0.30;;;;;;;7.10;100.00;101588.25;5013008;28;20045;-82
2021/10/11 04:03:02;;;;;;;0.30;0.30;;;;;;;7.15;100.00;101601.06;5030933;28;20049;-82
2021/10/11 04:05:35;;;;;;;0.30;0.30;;;;;;;7.21;100.00;101593.91;5010359;28;20064;-82
2021/10/11 04:08:12;;;;;;;0.20;0.20;;;;;;;7.17;100.00;101595.44;5032429;28;20045;-82
2021/10/11 04:10:52;;;;;;;0.40;0.40;;;;;;;7.20;100.00;101592.28;5027534;28;20052;-82
2021/10/11 04:13:25;;;;;;;0.30;0.30;;;;;;;7.20;100.00;101586.84;5030168;28;20049;-83
2021/10/11 04:15:58;;;;;;;0.30;0.30;;;;;;;7.22;100.00;101592.84;5012053;28;20552;-82
2021/10/11 04:18:31;;;;;;;0.30;0.30;;;;;;;7.23;100.00;101591.78;5011410;28;20049;-82
2021/10/11 04:20:59;;;;;;;0.40;0.40;;;;;;;7.24;100.00;101588.84;5031507;28;20041;-83
2021/10/11 04:23:34;;;;;;;0.28;0.28;;;;;;;7.24;100.00;101577.22;5010312;28;20046;-82
2021/10/11 04:26:07;;;;;;;0.20;0.20;;;;;;;7.26;100.00;101592.13;5030230;28;20053;-82
2021/10/11 04:28:40;;;;;;;0.40;0.40;;;;;;;7.27;100.00;101580.25;5013195;28;20049;-83
2021/10/11 04:31:13;;;;;;;0.40;0.40;;;;;;;7.31;100.00;101589.56;5013244;28;20265;-82
2021/10/11 04:33:47;;;;;;;2.15;0.75;;;;;;;7.33;100.00;101583.91;5027356;28;20045;-81
2021/10/11 04:36:21;;;;;;;1.52;0.50;;;;;;;7.33;100.00;101583.91;5030549;28;20518;-82
2021/10/11 04:38:56;;;;;;;0.43;0.40;;;;;;;7.25;100.00;101570.72;5011724;28;20057;-82
2021/10/11 04:41:29;;;;;;;2.25;0.80;;;;;;;7.37;100.00;101585.06;5029558;28;20037;-82
2021/10/11 04:43:57;;;;;;;1.38;0.68;;;;;;;7.35;100.00;101581.78;5012017;28;20068;-82
2021/10/11 04:46:31;;;;;;;0.40;0.40;;;;;;;7.29;100.00;101570.03;5011007;28;20052;-82
2021/10/11 04:49:04;;;;;;;0.50;0.40;;;;;;;7.41;100.00;101583.53;5029703;28;20060;-82
2021/10/11 04:51:37;;;;;;;1.05;0.60;;;;;;;7.47;100.00;101584.47;5013189;28;20056;-82
2021/10/11 04:54:14;;;;;;;0.55;0.32;;;;;;;7.47;100.00;101590.75;5032041;28;20060;-82
2021/10/11 04:56:47;;;;;;;0.40;0.40;;;;;;;7.50;100.00;101589.44;5013860;28;20045;-82
2021/10/11 04:59:20;;;;;;;0.70;0.55;;;;;;;7.52;100.00;101579.19;5031080;28;20052;-82
2021/10/11 05:01:48;;;;;;;2.28;0.75;;;;;;;7.54;100.00;101578.94;5012457;28;20778;-82
2021/10/11 05:04:16;;;;;;;0.30;0.30;;;;;;;7.62;100.00;101581.28;5013120;28;20413;-82
2021/10/11 05:06:50;;;;;;;0.85;0.40;;;;;;;7.58;100.00;101574.69;5013023;28;20045;-83
2021/10/11 05:09:24;;;;;;;0.35;0.35;;;;;;;7.54;100.00;101573.53;5012552;28;20542;-82
2021/10/11 05:11:58;;;;;;;0.40;0.40;;;;;;;7.62;100.00;101582.13;5009927;28;20058;-82
2021/10/11 05:14:31;;;;;;;0.65;0.45;;;;;;;7.64;100.00;101588.13;5010752;28;20061;-83
2021/10/11 05:17:00;;;;;;;2.05;0.47;;;;;;;7.72;100.00;101594.22;5011204;28;20034;-83
2021/10/11 05:19:28;;;;;;;0.52;0.40;;;;;;;7.68;100.00;101593.91;5030161;28;20046;-83
2021/10/11 05:22:01;;;;;;;0.30;0.30;;;;;;;7.66;100.00;101596.84;5011632;28;20049;-83
2021/10/11 05:24:36;;;;;;;0.52;0.30;;;;;;;7.77;100.00;101600.56;5010121;28;20061;-82
2021/10/11 05:27:09;;;;;;;0.40;0.35;;;;;;;7.82;100.00;101611.53;5012017;28;20053;-82
2021/10/11 05:29:42;;;;;;;0.75;0.40;;;;;;;7.75;100.00;101612.75;5028840;28;20037;-83
2021/10/11 05:32:11;;;;;;;0.20;0.20;;;;;;;7.72;100.00;101603.19;5029150;28;20378;-82
2021/10/11 05:34:45;;;;;;;0.30;0.30;;;;;;;7.68;100.00;101584.94;5009905;28;20064;-83
2021/10/11 05:37:18;;;;;;;0.40;0.40;;;;;;;7.79;100.00;101590.34;5030237;28;20041;-83
2021/10/11 05:39:53;;;;;;;0.30;0.30;;;;;;;7.76;100.00;101598.94;5013520;28;20060;-83
2021/10/11 05:42:23;;;;;;;0.20;0.20;;;;;;;7.65;100.00;101583.50;5035278;28;20052;-83
2021/10/11 05:44:53;;;;;;;0.30;0.30;;;;;;;7.70;100.00;101597.19;5006950;28;20060;-83
2021/10/11 05:47:27;;;;;;;0.30;0.30;;;;;;;7.75;100.00;101607.31;5017976;28;20477;-83
2021/10/11 05:49:55;;;;;;;0.30;0.30;;;;;;;7.75;100.00;101604.63;5032915;28;20058;-83
2021/10/11 05:52:23;;;;;;;0.25;0.25;;;;;;;7.71;100.00;101608.84;5015556;28;20053;-83
2021/10/11 05:54:53;;;;;;;0.30;0.30;;;;;;;7.84;100.00;101603.16;5015108;28;20054;-84
2021/10/11 05:57:21;;;;;;;0.30;0.30;;;;;;;7.95;100.00;101598.78;5033056;28;20041;-83
2021/10/11 05:59:54;;;;;;;0.30;0.30;;;;;;;7.94;100.00;101603.41;5014111;28;20057;-82
2021/10/11 06:02:27;;;;;;;0.20;0.20;;;;;;;7.96;100.00;101593.13;5031355;28;20520;-83
2021/10/11 06:05:01;;;;;;;0.20;0.20;;;;;;;7.95;100.00;101598.78;5033006;28;20045;-83
2021/10/11 06:07:34;;;;;;;0.20;0.20;;;;;;;8.03;100.00;101598.41;5032985;28;20082;-83
2021/10/11 06:10:09;;;;;;;0.30;0.30;;;;;;;8.00;100.00;101599.72;5031167;28;20053;-83
2021/10/11 06:12:43;;;;;;;0.28;0.28;;;;;;;8.05;100.00;101592.75;5015710;28;20136;-83
2021/10/11 06:15:16;;;;;;;0.40;0.40;;;;;;;7.98;100.00;101590.16;5028755;28;20053;-82
2021/10/11 06:17:44;;;;;;;0.30;0.30;;;;;;;7.93;100.00;101582.75;5031227;28;21046;-83
2021/10/11 06:20:18;;;;;;;0.20;0.20;;;;;;;7.88;100.00;101601.63;5029482;28;20061;-83
2021/10/11 06:22:46;;;;;;;0.30;0.30;;;;;;;7.81;100.00;101587.38;5014153;28;20049;-83
2021/10/11 06:25:20;;;;;;;0.30;0.30;;;;;;;7.82;100.00;101600.69;5014142;28;20056;-82
2021/10/11 06:27:54;;;;;;;0.30;0.30;;;;;;;7.76;100.00;101600.81;5033353;28;20041;-82
2021/10/11 06:30:27;;;;;;;0.20;0.20;;;;;;;7.76;100.00;101608.94;5014352;28;20409;-82
2021/10/11 06:33:00;;;;;;;0.30;0.30;;;;;;;7.79;100.00;101611.22;5030591;28;20053;-87
2021/10/11 06:35:35;;;;;;;0.30;0.30;;;;;;;7.81;100.00;101617.19;5032428;28;20048;-83
2021/10/11 06:38:03;;;;;;;0.35;0.35;;;;;;;7.79;100.00;101606.59;5014120;28;20050;-82
2021/10/11 06:40:38;;;;;;;0.30;0.30;;;;;;;7.94;100.00;101616.94;5031672;28;20040;-82
2021/10/11 06:43:12;;;;;;;0.30;0.30;;;;;;;8.04;100.00;101612.78;5017078;28;20049;-83
2021/10/11 06:45:46;;;;;;;0.30;0.30;;;;;;;8.04;100.00;101615.50;5011224;28;20049;-82
2021/10/11 06:48:19;;;;;;;0.20;0.20;;;;;;;8.11;100.00;101611.59;5016861;28;20053;-82
2021/10/11 06:50:48;;;;;;;0.30;0.30;;;;;;;8.07;100.00;101615.84;5034779;28;20052;-82
2021/10/11 06:53:21;;;;;;;0.30;0.30;;;;;;;8.06;100.00;101611.47;5013945;28;20064;-82
2021/10/11 06:56:04;;;;;;;0.28;0.28;;;;;;;8.07;100.00;101620.47;5032491;28;20037;-82
2021/10/11 06:58:41;;;;;;;0.28;0.28;;;;;;;8.09;100.00;101621.03;5031238;28;20036;-82
2021/10/11 07:01:21;;;;;;;0.20;0.20;;;;;;;8.04;100.00;101623.63;5031104;28;20052;-82
2021/10/11 07:03:54;;;;;;;0.30;0.30;;;;;;;8.00;100.00;101634.94;5027986;28;20393;-83
2021/10/11 07:06:27;;;;;;;0.20;0.20;;;;;;;8.07;100.00;101623.16;5015282;28;20052;-83
2021/10/11 07:09:01;;;;;;;0.30;0.30;;;;;;;8.11;100.00;101630.56;5029048;28;20053;-82
2021/10/11 07:11:33;;;;;;;0.32;0.32;;;;;;;8.09;100.00;101638.13;5010845;28;20429;-85
2021/10/11 07:14:06;;;;;;;0.30;0.30;;;;;;;8.07;100.00;101636.72;5016613;28;20057;-82
2021/10/11 07:16:40;;;;;;;0.30;0.30;;;;;;;8.08;100.00;101631.06;5014650;28;20316;-83
2021/10/11 07:19:11;;;;;;;0.20;0.20;;;;;;;8.22;100.00;101639.75;4997267;28;20057;-82
2021/10/11 07:21:44;;;;;;;0.30;0.30;;;;;;;8.25;100.00;101649.28;5021676;28;20869;-82
2021/10/11 07:24:18;;;;;;;0.20;0.20;;;;;;;8.25;100.00;101641.97;5023388;28;20045;-86
2021/10/11 07:26:53;;;;;;;0.30;0.30;;;;;;;8.37;100.00;101652.78;5024408;28;20065;-83
2021/10/11 07:29:26;;;;;;;0.30;0.30;;;;;;;8.39;100.00;101642.50;5017182;28;20050;-82
2021/10/11 07:32:01;;;;;;;0.20;0.20;;;;;;;8.44;100.00;101637.19;5004544;28;20056;-84
2021/10/11 07:34:36;;;;;;;0.38;0.38;;;;;;;8.62;100.00;101657.91;5022899;28;20041;-85
2021/10/11 07:37:05;;;;;;;0.50;0.40;;;;;;;8.65;100.00;101656.59;5023793;28;20065;-83
2021/10/11 07:39:33;;;;;;;0.70;0.30;;;;;;;8.56;100.00;101648.03;5001138;28;20054;-85
2021/10/11 07:42:12;;;;;;;0.20;0.20;;;;;;;8.73;100.00;101660.78;4998656;28;20057;-84
2021/10/11 07:44:46;;;;;;;0.28;0.28;;;;;;;8.87;100.00;101669.50;4999557;28;20052;-83
2021/10/11 07:47:14;;;;;;;0.20;0.20;;;;;;;8.91;100.00;101670.63;5016076;28;20053;-83
2021/10/11 07:49:43;;;;;;;0.22;0.22;;;;;;;8.89;100.00;101662.72;5005104;28;20057;-82
2021/10/11 07:52:16;;;;;;;0.30;0.30;;;;;;;9.02;100.00;101667.84;5023433;28;20045;-83
2021/10/11 07:54:44;;;;;;;0.30;0.30;;;;;;;9.02;100.00;101665.13;5006453;28;20076;-82
2021/10/11 07:57:19;;;;;;;0.20;0.20;;;;;;;9.01;100.00;101660.75;5015876;28;20045;-83
2021/10/11 07:59:54;;;;;;;0.22;0.22;;;;;;;9.04;100.00;101658.66;4995040;28;20064;-83
2021/10/11 08:02:27;;;;;;;0.20;0.20;;;;;;;9.10;100.00;101661.22;4996229;28;20555;-82
2021/10/11 08:05:01;;;;;;;0.20;0.20;;;;;;;9.09;100.00;101659.56;5000317;28;20057;-82
2021/10/11 08:07:34;;;;;;;0.20;0.20;;;;;;;9.10;100.00;101653.06;5018169;28;20049;-83
2021/10/11 08:10:06;;;;;;;0.30;0.30;;;;;;;9.07;100.00;101658.97;5001548;28;20049;-82
2021/10/11 08:12:36;;;;;;;0.20;0.20;;;;;;;9.08;100.00;101657.09;5019270;28;20050;-81
2021/10/11 08:15:10;;;;;;;0.20;0.20;;;;;;;9.07;100.00;101639.13;5013951;28;20056;-82
2021/10/11 08:17:43;;;;;;;0.22;0.22;;;;;;;9.19;100.00;101650.75;4999704;28;20061;-83
2021/10/11 08:20:17;;;;;;;0.25;0.25;;;;;;;9.24;100.00;101644.56;5021039;28;20056;-82
2021/10/11 08:22:50;;;;;;;0.30;0.30;;;;;;;9.27;100.00;101646.81;5002515;28;20064;-83
2021/10/11 08:25:24;;;;;;;0.28;0.28;;;;;;;9.47;100.00;101638.97;5018229;28;20053;-82
2021/10/11 08:27:53;;;;;;;0.22;0.22;;;;;;;9.40;100.00;101638.31;5021645;28;20057;-82
2021/10/11 08:30:26;;;;;;;0.20;0.20;;;;;;;9.44;100.00;101646.78;4998454;28;20568;-82
2021/10/11 08:33:00;;;;;;;0.20;0.20;;;;;;;9.53;100.00;101640.69;5015926;28;20073;-82
2021/10/11 08:35:33;;;;;;;0.20;0.20;;;;;;;9.56;100.00;101639.38;4996838;28;20045;-82
2021/10/11 08:38:06;;;;;;;0.20;0.20;;;;;;;9.59;100.00;101622.56;4994264;28;20061;-83
2021/10/11 08:40:40;;;;;;;0.20;0.20;;;;;;;9.73;100.00;101649.41;4992824;28;20058;-81
2021/10/11 08:43:09;;;;;;;0.20;0.20;;;;;;;9.76;100.00;101644.25;4986951;28;20056;-83
2021/10/11 08:45:38;;;;;;;0.20;0.20;;;;;;;9.80;100.00;101639.97;4991812;28;20061;-82
2021/10/11 08:48:12;;;;;;;0.20;0.20;;;;;;;9.91;100.00;101640.94;5010269;28;20045;-82
2021/10/11 08:50:46;;;;;;;0.20;0.20;;;;;;;9.98;100.00;101621.72;5009580;28;20045;-83
2021/10/11 08:53:20;;;;;;;0.30;0.30;;;;;;;10.11;100.00;101631.38;5005219;28;20041;-82
2021/10/11 08:55:49;;;;;;;0.20;0.20;;;;;;;10.14;100.00;101636.34;5014520;28;20053;-82
2021/10/11 08:58:26;;;;;;;0.20;0.20;;;;;;;10.20;100.00;101625.28;4989005;28;20057;-83
2021/10/11 09:01:05;;;;;;;0.30;0.30;;;;;;;10.23;100.00;101634.78;5004685;28;20049;-82
2021/10/11 09:03:37;;;;;;;0.20;0.20;;;;;;;10.32;100.00;101629.75;4990685;28;20053;-84
2021/10/11 09:06:07;;;;;;;0.20;0.20;;;;;;;10.36;100.00;101636.34;4994551;28;20053;-82
2021/10/11 09:08:42;;;;;;;0.20;0.20;;;;;;;10.33;100.00;101625.94;4985764;28;20057;-84
2021/10/11 09:11:12;;;;;;;0.20;0.20;;;;;;;10.45;100.00;101634.81;4986699;28;20055;-81
2021/10/11 09:13:45;;;;;;;0.30;0.30;;;;;;;10.51;100.00;101622.09;4986962;28;20072;-84
2021/10/11 09:16:18;;;;;;;0.20;0.20;;;;;;;10.50;100.00;101625.91;4993633;28;20068;-84
2021/10/11 09:18:54;;;;;;;0.20;0.20;;;;;;;10.69;100.00;101627.19;5006273;28;20061;-83
2021/10/11 09:21:33;;;;;;;0.20;0.20;;;;;;;10.69;100.00;101623.63;4992094;28;21410;-82
2021/10/11 09:24:08;;;;;;;0.20;0.20;;;;;;;10.80;100.00;101622.66;4988968;28;20060;-84
2021/10/11 09:26:43;;;;;;;0.20;0.20;;;;;;;10.80;100.00;101621.81;5010344;28;20783;-83
2021/10/11 09:29:29;;;;;;;0.20;0.20;;;;;;;10.83;100.00;101596.81;5009967;28;20667;-83
2021/10/11 09:32:09;;;;;;;0.20;0.20;;;;;;;10.89;100.00;101621.09;4989141;28;21697;-83
2021/10/11 09:34:39;;;;;;;0.22;0.22;;;;;;;11.10;100.00;101612.28;5014221;28;20056;-83
2021/10/11 09:37:15;;;;;;;0.20;0.20;;;;;;;11.17;100.00;101607.41;4990579;28;20152;-83
2021/10/11 09:39:59;;;;;;;0.20;0.20;;;;;;;11.19;100.00;101602.53;5004623;28;20053;-82
2021/10/11 09:42:34;;;;;;;0.20;0.20;;;;;;;11.27;100.00;101603.94;5010519;28;20064;-83
2021/10/11 09:45:06;;;;;;;0.28;0.28;;;;;;;11.33;100.00;101603.72;4989865;28;20054;-85
2021/10/11 09:47:45;;;;;;;0.20;0.20;;;;;;;11.57;100.00;101604.16;5013230;28;20050;-83
2021/10/11 09:50:21;;;;;;;0.20;0.20;;;;;;;11.37;100.00;101604.84;5005339;28;20041;-83
2021/10/11 09:52:50;;;;;;;0.20;0.20;;;;;;;11.53;100.00;101599.47;4990767;28;20061;-81
2021/10/11 09:55:29;;;;;;;0.20;0.20;;;;;;;11.48;100.00;101591.28;4994376;28;20057;-84
2021/10/11 09:57:57;;;;;;;0.20;0.20;;;;;;;11.55;100.00;101584.50;4993502;28;20784;-83
2021/10/11 10:00:28;;;;;;;0.20;0.20;;;;;;;11.81;100.00;101586.56;5007410;28;20057;-82
2021/10/11 10:03:02;;;;;;;1.30;0.22;;;;;;;11.93;100.00;101580.88;5010498;28;20063;-83
2021/10/11 10:05:39;;;;;;;0.20;0.20;;;;;;;11.98;100.00;101581.72;4990639;28;20058;-82
2021/10/11 10:08:14;;;;;;;;;;;;;;;11.95;100.00;101576.81;4988125;28;20064;-83
2021/10/11 10:10:54;;;;;;;0.20;0.20;;;;;;;11.99;100.00;101572.47;5011359;28;19925;-82
2021/10/11 10:13:31;;;;;;;0.30;0.30;;;;;;;12.18;100.00;101561.06;5006170;28;20124;-84
2021/10/11 10:16:09;;;;;;;;;;;;;;;12.06;100.00;101574.94;5003173;28;20049;-83
2021/10/11 10:18:44;;;;;;;0.20;0.20;;;;;;;12.06;100.00;101548.47;4977842;28;20437;-83
2021/10/11 10:21:32;;;;;;;0.20;0.20;;;;;;;12.14;100.00;101552.59;5000260;28;20041;-82
2021/10/11 10:24:05;;;;;;;0.20;0.20;;;;;;;12.44;100.00;101559.19;5009753;28;20052;-81
2021/10/11 10:26:35;;;;;;;0.15;0.15;;;;;;;12.51;100.00;101554.31;4989552;28;20068;-81
2021/10/11 10:29:14;;;;;;;0.20;0.20;;;;;;;12.55;100.00;101552.69;5011630;28;20057;-83
2021/10/11 10:31:49;;;;;;;0.20;0.20;;;;;;;12.70;100.00;101551.84;5012487;28;20041;-84
2021/10/11 10:34:19;;;;;;;0.20;0.20;;;;;;;12.67;95.90;101546.94;5014341;28;20049;-83
2021/10/11 10:37:00;;;;;;;0.20;0.20;;;;;;;12.75;95.57;101535.47;5022045;28;20406;-83
2021/10/11 10:39:37;;;;;;;0.20;0.20;;;;;;;12.57;92.34;101539.56;5010018;28;20474;-82
2021/10/11 10:42:08;;;;;;;0.20;0.20;;;;;;;12.45;94.54;101549.13;5007070;28;20049;-82
2021/10/11 10:44:46;;;;;;;0.20;0.20;;;;;;;12.45;93.16;101532.75;5009809;28;20072;-83
2021/10/11 10:47:31;;;;;;;0.20;0.20;;;;;;;12.43;93.06;101541.19;4992818;28;20136;-82
2021/10/11 10:50:10;;;;;;;0.20;0.20;;;;;;;12.52;94.20;101527.81;5014178;28;20405;-82
2021/10/11 10:52:47;;;;;;;0.20;0.20;;;;;;;12.75;94.43;101521.81;5012934;28;20054;-83
2021/10/11 10:55:25;;;;;;;0.25;0.25;;;;;;;13.02;89.84;101522.59;5014295;28;20068;-84
2021/10/11 10:57:55;;;;;;;0.20;0.20;;;;;;;13.21;91.45;101522.84;5002009;28;20669;-83
2021/10/11 11:00:30;;;;;;;0.20;0.20;;;;;;;13.37;85.04;101520.94;5009171;28;20583;-81
2021/10/11 11:03:01;;;;;;;0.20;0.20;;;;;;;13.41;91.59;101520.09;4995390;28;20132;-83
2021/10/11 11:05:30;;;;;;;0.20;0.20;;;;;;;13.19;84.15;101514.13;5002409;28;20128;-83
2021/10/11 11:08:04;;;;;;;0.28;0.28;;;;;;;13.12;90.95;101519.03;4997820;28;20065;-85
2021/10/11 11:10:36;;;;;;;0.20;0.20;;;;;;;13.14;87.41;101506.72;5013191;28;20046;-85
2021/10/11 11:13:14;;;;;;;0.30;0.30;;;;;;;13.02;87.87;101507.06;5011527;28;20065;-83
2021/10/11 11:15:51;;;;;;;0.20;0.20;;;;;;;13.09;89.25;101504.00;5015974;28;20049;-85
2021/10/11 11:18:27;;;;;;;0.20;0.20;;;;;;;13.29;85.35;101507.81;5014071;28;20053;-83
2021/10/11 11:20:58;;;;;;;0.20;0.20;;;;;;;13.25;85.89;101504.81;5011489;28;20064;-84
2021/10/11 11:23:31;;;;;;;0.20;0.20;;;;;;;13.23;86.03;101490.56;5007132;28;20053;-84
2021/10/11 11:26:04;;;;;;;0.20;0.20;;;;;;;13.15;86.93;101497.44;4997576;28;20057;-83
2021/10/11 11:28:38;;;;;;;0.20;0.20;;;;;;;13.19;88.18;101486.78;5011695;28;20533;-83
2021/10/11 11:31:12;;;;;;;0.20;0.20;;;;;;;12.99;88.07;101507.56;4991991;28;20049;-84
2021/10/11 11:33:49;;;;;;;0.20;0.20;;;;;;;12.75;90.75;101504.63;4997154;28;20053;-83
2021/10/11 11:36:22;;;;;;;0.20;0.20;;;;;;;12.42;93.55;101506.78;5017647;28;20054;-84
2021/10/11 11:38:52;;;;;;;0.30;0.30;;;;;;;11.97;100.00;101479.16;5000896;28;20049;-83
2021/10/11 11:41:25;;;;;;;0.20;0.20;;;;;;;11.90;100.00;101509.41;5014808;28;20064;-83
2021/10/11 11:43:58;;;;;;;0.20;0.20;;;;;;;11.90;100.00;101514.88;5012451;28;20481;-83
2021/10/11 11:46:27;;;;;;;0.20;0.20;;;;;;;11.95;100.00;101505.09;5019523;28;20045;-84
2021/10/11 11:48:59;;;;;;;0.10;0.10;;;;;;;11.69;100.00;101481.22;5017261;28;20061;-84
2021/10/11 11:51:32;;;;;;;0.30;0.30;;;;;;;11.70;100.00;101507.41;4999584;28;20053;-84